sensor_id;sensor_type;location;lat;lon;timestamp;P1;durP1;ratioP1;P2;durP2;ratioP2
5795;SDS011;2924;51.458;7.046;2022-12-08T00:00:45;32.23;;;21.13;;
5795;SDS011;2924;51.458;7.046;2022-12-08T00:03:11;29.17;;;17.90;;
5795;SDS011;2924;51.458;7.046;2022-12-08T00:05:37;30.60;;;20.57;;
5795;SDS011;2924;51.458;7.046;2022-12-08T00:08:22;28.20;;;18.50;;
5795;SDS011;2924;51.458;7.046;2022-12-08T00:11:10;31.30;;;20.90;;
5795;SDS011;2924;51.458;7.046;2022-12-08T00:13:39;27.80;;;19.27;;
5795;SDS011;2924;51.458;7.046;2022-12-08T00:16:06;37.50;;;23.30;;
5795;SDS011;2924;51.458;7.046;2022-12-08T00:18:32;32.97;;;21.40;;
5795;SDS011;2924;51.458;7.046;2022-12-08T00:20:58;33.63;;;21.50;;
5795;SDS011;2924;51.458;7.046;2022-12-08T00:23:24;34.73;;;24.20;;
5795;SDS011;2924;51.458;7.046;2022-12-08T00:25:50;36.53;;;23.13;;
5795;SDS011;2924;51.458;7.046;2022-12-08T00:28:16;35.40;;;23.77;;
5795;SDS011;2924;51.458;7.046;2022-12-08T00:30:42;42.47;;;23.23;;
5795;SDS011;2924;51.458;7.046;2022-12-08T00:33:09;35.83;;;23.30;;
5795;SDS011;2924;51.458;7.046;2022-12-08T00:35:35;32.13;;;20.33;;
5795;SDS011;2924;51.458;7.046;2022-12-08T00:38:01;37.77;;;23.23;;
5795;SDS011;2924;51.458;7.046;2022-12-08T00:40:26;33.10;;;22.40;;
5795;SDS011;2924;51.458;7.046;2022-12-08T00:42:52;28.17;;;22.60;;
5795;SDS011;2924;51.458;7.046;2022-12-08T00:45:18;35.43;;;22.83;;
5795;SDS011;2924;51.458;7.046;2022-12-08T00:47:44;32.83;;;22.10;;
5795;SDS011;2924;51.458;7.046;2022-12-08T00:50:09;30.17;;;22.20;;
5795;SDS011;2924;51.458;7.046;2022-12-08T00:52:35;32.33;;;21.50;;
5795;SDS011;2924;51.458;7.046;2022-12-08T00:55:02;29.60;;;21.10;;
5795;SDS011;2924;51.458;7.046;2022-12-08T00:57:28;28.90;;;20.93;;
5795;SDS011;2924;51.458;7.046;2022-12-08T00:59:54;32.00;;;20.73;;
5795;SDS011;2924;51.458;7.046;2022-12-08T01:02:20;33.53;;;22.40;;
5795;SDS011;2924;51.458;7.046;2022-12-08T01:04:45;30.43;;;19.73;;
5795;SDS011;2924;51.458;7.046;2022-12-08T01:07:11;30.70;;;20.80;;
5795;SDS011;2924;51.458;7.046;2022-12-08T01:09:37;26.13;;;20.03;;
5795;SDS011;2924;51.458;7.046;2022-12-08T01:12:02;28.90;;;20.53;;
5795;SDS011;2924;51.458;7.046;2022-12-08T01:14:29;31.77;;;19.67;;
5795;SDS011;2924;51.458;7.046;2022-12-08T01:16:54;31.30;;;21.43;;
5795;SDS011;2924;51.458;7.046;2022-12-08T01:19:20;29.67;;;20.00;;
5795;SDS011;2924;51.458;7.046;2022-12-08T01:21:45;29.23;;;20.23;;
5795;SDS011;2924;51.458;7.046;2022-12-08T01:24:12;34.37;;;21.93;;
5795;SDS011;2924;51.458;7.046;2022-12-08T01:26:40;32.37;;;20.97;;
5795;SDS011;2924;51.458;7.046;2022-12-08T01:29:06;36.00;;;21.87;;
5795;SDS011;2924;51.458;7.046;2022-12-08T01:31:32;31.17;;;21.50;;
5795;SDS011;2924;51.458;7.046;2022-12-08T01:33:58;33.43;;;22.17;;
5795;SDS011;2924;51.458;7.046;2022-12-08T01:36:28;31.60;;;21.10;;
5795;SDS011;2924;51.458;7.046;2022-12-08T01:38:55;29.67;;;21.70;;
5795;SDS011;2924;51.458;7.046;2022-12-08T01:41:25;30.17;;;21.07;;
5795;SDS011;2924;51.458;7.046;2022-12-08T01:46:38;37.30;;;25.10;;
5795;SDS011;2924;51.458;7.046;2022-12-08T01:49:10;31.53;;;22.20;;
5795;SDS011;2924;51.458;7.046;2022-12-08T01:54:38;38.33;;;24.90;;
5795;SDS011;2924;51.458;7.046;2022-12-08T01:57:34;34.67;;;24.60;;
5795;SDS011;2924;51.458;7.046;2022-12-08T02:00:06;37.10;;;25.70;;
5795;SDS011;2924;51.458;7.046;2022-12-08T02:02:37;40.60;;;26.73;;
5795;SDS011;2924;51.458;7.046;2022-12-08T02:05:10;42.73;;;26.70;;
5795;SDS011;2924;51.458;7.046;2022-12-08T02:07:36;43.17;;;26.57;;
5795;SDS011;2924;51.458;7.046;2022-12-08T02:10:02;41.27;;;27.80;;
5795;SDS011;2924;51.458;7.046;2022-12-08T02:12:28;47.30;;;26.80;;
5795;SDS011;2924;51.458;7.046;2022-12-08T02:14:54;42.47;;;27.60;;
5795;SDS011;2924;51.458;7.046;2022-12-08T02:17:25;39.80;;;27.67;;
5795;SDS011;2924;51.458;7.046;2022-12-08T02:28:41;42.57;;;26.67;;
5795;SDS011;2924;51.458;7.046;2022-12-08T02:47:56;47.80;;;27.93;;
5795;SDS011;2924;51.458;7.046;2022-12-08T02:50:23;44.47;;;27.43;;
5795;SDS011;2924;51.458;7.046;2022-12-08T02:52:48;50.70;;;29.37;;
5795;SDS011;2924;51.458;7.046;2022-12-08T02:55:17;46.33;;;28.77;;
5795;SDS011;2924;51.458;7.046;2022-12-08T03:00:28;48.93;;;29.30;;
5795;SDS011;2924;51.458;7.046;2022-12-08T03:03:22;55.40;;;29.80;;
5795;SDS011;2924;51.458;7.046;2022-12-08T03:11:49;60.20;;;33.17;;
5795;SDS011;2924;51.458;7.046;2022-12-08T03:14:22;44.50;;;28.10;;
5795;SDS011;2924;51.458;7.046;2022-12-08T03:16:50;49.07;;;29.90;;
5795;SDS011;2924;51.458;7.046;2022-12-08T03:19:23;55.60;;;30.17;;
5795;SDS011;2924;51.458;7.046;2022-12-08T03:21:57;50.33;;;30.47;;
5795;SDS011;2924;51.458;7.046;2022-12-08T03:24:27;56.03;;;30.73;;
5795;SDS011;2924;51.458;7.046;2022-12-08T03:27:16;44.73;;;28.60;;
5795;SDS011;2924;51.458;7.046;2022-12-08T03:29:46;46.97;;;29.13;;
5795;SDS011;2924;51.458;7.046;2022-12-08T03:34:47;47.60;;;27.50;;
5795;SDS011;2924;51.458;7.046;2022-12-08T03:37:15;47.73;;;27.93;;
5795;SDS011;2924;51.458;7.046;2022-12-08T03:39:41;45.63;;;29.83;;
5795;SDS011;2924;51.458;7.046;2022-12-08T03:42:07;50.37;;;28.70;;
5795;SDS011;2924;51.458;7.046;2022-12-08T03:44:33;49.50;;;29.70;;
5795;SDS011;2924;51.458;7.046;2022-12-08T03:46:58;39.10;;;26.90;;
5795;SDS011;2924;51.458;7.046;2022-12-08T03:49:24;50.67;;;27.83;;
5795;SDS011;2924;51.458;7.046;2022-12-08T03:51:50;52.27;;;27.40;;
5795;SDS011;2924;51.458;7.046;2022-12-08T03:54:15;41.67;;;26.10;;
5795;SDS011;2924;51.458;7.046;2022-12-08T03:56:41;40.83;;;24.30;;
5795;SDS011;2924;51.458;7.046;2022-12-08T03:59:07;43.23;;;25.80;;
5795;SDS011;2924;51.458;7.046;2022-12-08T04:01:34;39.90;;;24.33;;
5795;SDS011;2924;51.458;7.046;2022-12-08T04:04:00;45.07;;;27.20;;
5795;SDS011;2924;51.458;7.046;2022-12-08T04:06:26;44.30;;;27.60;;
5795;SDS011;2924;51.458;7.046;2022-12-08T04:08:51;43.63;;;27.27;;
5795;SDS011;2924;51.458;7.046;2022-12-08T04:11:17;46.47;;;26.80;;
5795;SDS011;2924;51.458;7.046;2022-12-08T04:13:43;43.30;;;27.00;;
5795;SDS011;2924;51.458;7.046;2022-12-08T04:16:17;41.33;;;25.33;;
5795;SDS011;2924;51.458;7.046;2022-12-08T04:18:45;42.87;;;26.40;;
5795;SDS011;2924;51.458;7.046;2022-12-08T04:21:11;39.00;;;24.47;;
5795;SDS011;2924;51.458;7.046;2022-12-08T04:23:37;38.20;;;24.80;;
5795;SDS011;2924;51.458;7.046;2022-12-08T04:26:03;39.00;;;23.87;;
5795;SDS011;2924;51.458;7.046;2022-12-08T04:28:29;42.83;;;25.30;;
5795;SDS011;2924;51.458;7.046;2022-12-08T04:30:55;35.37;;;23.83;;
5795;SDS011;2924;51.458;7.046;2022-12-08T04:33:21;41.20;;;22.80;;
5795;SDS011;2924;51.458;7.046;2022-12-08T04:35:47;36.50;;;22.47;;
5795;SDS011;2924;51.458;7.046;2022-12-08T04:38:13;35.13;;;22.57;;
5795;SDS011;2924;51.458;7.046;2022-12-08T04:40:39;37.87;;;22.70;;
5795;SDS011;2924;51.458;7.046;2022-12-08T04:43:05;34.80;;;21.40;;
5795;SDS011;2924;51.458;7.046;2022-12-08T04:45:30;34.90;;;21.27;;
5795;SDS011;2924;51.458;7.046;2022-12-08T04:47:57;30.70;;;21.17;;
5795;SDS011;2924;51.458;7.046;2022-12-08T04:50:23;46.90;;;19.57;;
5795;SDS011;2924;51.458;7.046;2022-12-08T04:52:49;36.50;;;22.50;;
5795;SDS011;2924;51.458;7.046;2022-12-08T04:55:15;32.33;;;20.60;;
5795;SDS011;2924;51.458;7.046;2022-12-08T04:57:40;30.47;;;19.33;;
5795;SDS011;2924;51.458;7.046;2022-12-08T05:00:06;32.83;;;20.63;;
5795;SDS011;2924;51.458;7.046;2022-12-08T05:02:32;33.67;;;18.60;;
5795;SDS011;2924;51.458;7.046;2022-12-08T05:04:58;32.47;;;21.57;;
5795;SDS011;2924;51.458;7.046;2022-12-08T05:07:24;27.80;;;19.30;;
5795;SDS011;2924;51.458;7.046;2022-12-08T05:09:49;32.10;;;22.30;;
5795;SDS011;2924;51.458;7.046;2022-12-08T05:12:15;36.87;;;19.43;;
5795;SDS011;2924;51.458;7.046;2022-12-08T05:14:41;29.13;;;20.53;;
5795;SDS011;2924;51.458;7.046;2022-12-08T05:17:06;36.63;;;19.70;;
5795;SDS011;2924;51.458;7.046;2022-12-08T05:19:32;29.13;;;19.90;;
5795;SDS011;2924;51.458;7.046;2022-12-08T05:21:58;28.17;;;19.13;;
5795;SDS011;2924;51.458;7.046;2022-12-08T05:24:23;30.00;;;18.97;;
5795;SDS011;2924;51.458;7.046;2022-12-08T05:26:49;28.27;;;19.90;;
5795;SDS011;2924;51.458;7.046;2022-12-08T05:29:14;28.03;;;18.53;;
5795;SDS011;2924;51.458;7.046;2022-12-08T05:31:40;40.17;;;19.90;;
5795;SDS011;2924;51.458;7.046;2022-12-08T05:34:06;28.40;;;18.90;;
5795;SDS011;2924;51.458;7.046;2022-12-08T05:36:32;27.70;;;18.00;;
5795;SDS011;2924;51.458;7.046;2022-12-08T05:38:57;29.47;;;18.47;;
5795;SDS011;2924;51.458;7.046;2022-12-08T05:41:23;27.33;;;17.97;;
5795;SDS011;2924;51.458;7.046;2022-12-08T05:43:49;26.13;;;16.20;;
5795;SDS011;2924;51.458;7.046;2022-12-08T05:46:15;26.10;;;17.77;;
5795;SDS011;2924;51.458;7.046;2022-12-08T05:48:41;28.33;;;20.50;;
5795;SDS011;2924;51.458;7.046;2022-12-08T05:51:11;27.57;;;18.27;;
5795;SDS011;2924;51.458;7.046;2022-12-08T05:53:48;26.87;;;18.50;;
5795;SDS011;2924;51.458;7.046;2022-12-08T05:56:15;30.03;;;18.30;;
5795;SDS011;2924;51.458;7.046;2022-12-08T05:58:42;23.47;;;16.23;;
5795;SDS011;2924;51.458;7.046;2022-12-08T06:01:17;25.00;;;17.53;;
5795;SDS011;2924;51.458;7.046;2022-12-08T06:03:56;28.53;;;18.10;;
5795;SDS011;2924;51.458;7.046;2022-12-08T06:06:23;27.27;;;17.73;;
5795;SDS011;2924;51.458;7.046;2022-12-08T06:08:49;24.47;;;16.60;;
5795;SDS011;2924;51.458;7.046;2022-12-08T06:11:28;26.70;;;17.13;;
5795;SDS011;2924;51.458;7.046;2022-12-08T06:13:55;24.77;;;16.70;;
5795;SDS011;2924;51.458;7.046;2022-12-08T06:16:22;25.03;;;17.50;;
5795;SDS011;2924;51.458;7.046;2022-12-08T06:18:48;22.47;;;15.53;;
5795;SDS011;2924;51.458;7.046;2022-12-08T06:21:14;24.17;;;15.20;;
5795;SDS011;2924;51.458;7.046;2022-12-08T06:23:41;19.03;;;14.07;;
5795;SDS011;2924;51.458;7.046;2022-12-08T06:26:11;25.17;;;15.20;;
5795;SDS011;2924;51.458;7.046;2022-12-08T06:28:39;24.70;;;16.97;;
5795;SDS011;2924;51.458;7.046;2022-12-08T06:31:06;29.33;;;17.87;;
5795;SDS011;2924;51.458;7.046;2022-12-08T06:33:38;26.27;;;16.80;;
5795;SDS011;2924;51.458;7.046;2022-12-08T06:36:04;27.10;;;16.93;;
5795;SDS011;2924;51.458;7.046;2022-12-08T06:38:30;30.43;;;17.07;;
5795;SDS011;2924;51.458;7.046;2022-12-08T06:40:57;22.83;;;15.60;;
5795;SDS011;2924;51.458;7.046;2022-12-08T06:43:23;25.70;;;16.30;;
5795;SDS011;2924;51.458;7.046;2022-12-08T06:45:49;21.53;;;15.00;;
5795;SDS011;2924;51.458;7.046;2022-12-08T06:48:16;24.13;;;17.20;;
5795;SDS011;2924;51.458;7.046;2022-12-08T06:50:42;24.57;;;16.50;;
5795;SDS011;2924;51.458;7.046;2022-12-08T06:53:10;25.77;;;16.47;;
5795;SDS011;2924;51.458;7.046;2022-12-08T06:55:37;28.00;;;18.47;;
5795;SDS011;2924;51.458;7.046;2022-12-08T06:58:06;26.17;;;17.00;;
5795;SDS011;2924;51.458;7.046;2022-12-08T07:00:32;27.83;;;16.20;;
5795;SDS011;2924;51.458;7.046;2022-12-08T07:02:58;26.90;;;16.20;;
5795;SDS011;2924;51.458;7.046;2022-12-08T07:05:23;33.03;;;18.83;;
5795;SDS011;2924;51.458;7.046;2022-12-08T07:07:49;31.20;;;18.90;;
5795;SDS011;2924;51.458;7.046;2022-12-08T07:10:14;34.60;;;18.43;;
5795;SDS011;2924;51.458;7.046;2022-12-08T07:12:40;26.63;;;15.07;;
5795;SDS011;2924;51.458;7.046;2022-12-08T07:15:06;31.27;;;16.13;;
5795;SDS011;2924;51.458;7.046;2022-12-08T07:17:32;32.60;;;18.63;;
5795;SDS011;2924;51.458;7.046;2022-12-08T07:19:58;31.73;;;18.77;;
5795;SDS011;2924;51.458;7.046;2022-12-08T07:22:23;30.80;;;18.13;;
5795;SDS011;2924;51.458;7.046;2022-12-08T07:24:49;29.47;;;17.70;;
5795;SDS011;2924;51.458;7.046;2022-12-08T07:27:14;27.03;;;15.73;;
5795;SDS011;2924;51.458;7.046;2022-12-08T07:29:40;24.07;;;16.20;;
5795;SDS011;2924;51.458;7.046;2022-12-08T07:32:06;27.33;;;17.33;;
5795;SDS011;2924;51.458;7.046;2022-12-08T07:34:32;26.40;;;16.70;;
5795;SDS011;2924;51.458;7.046;2022-12-08T07:36:57;26.27;;;16.13;;
5795;SDS011;2924;51.458;7.046;2022-12-08T07:39:23;29.57;;;18.13;;
5795;SDS011;2924;51.458;7.046;2022-12-08T07:41:49;32.20;;;17.47;;
5795;SDS011;2924;51.458;7.046;2022-12-08T07:44:14;28.27;;;16.97;;
5795;SDS011;2924;51.458;7.046;2022-12-08T07:46:40;26.57;;;16.60;;
5795;SDS011;2924;51.458;7.046;2022-12-08T07:49:06;32.73;;;17.87;;
5795;SDS011;2924;51.458;7.046;2022-12-08T07:51:31;23.67;;;16.07;;
5795;SDS011;2924;51.458;7.046;2022-12-08T07:53:57;27.80;;;16.07;;
5795;SDS011;2924;51.458;7.046;2022-12-08T07:56:23;25.17;;;16.50;;
5795;SDS011;2924;51.458;7.046;2022-12-08T07:58:48;25.90;;;16.37;;
5795;SDS011;2924;51.458;7.046;2022-12-08T08:01:19;23.10;;;15.90;;
5795;SDS011;2924;51.458;7.046;2022-12-08T08:03:49;24.53;;;15.50;;
5795;SDS011;2924;51.458;7.046;2022-12-08T08:06:14;19.80;;;14.03;;
5795;SDS011;2924;51.458;7.046;2022-12-08T08:08:40;20.73;;;12.93;;
5795;SDS011;2924;51.458;7.046;2022-12-08T08:11:06;26.30;;;13.57;;
5795;SDS011;2924;51.458;7.046;2022-12-08T08:13:32;22.90;;;13.63;;
5795;SDS011;2924;51.458;7.046;2022-12-08T08:16:05;18.50;;;13.50;;
5795;SDS011;2924;51.458;7.046;2022-12-08T08:18:33;19.83;;;12.70;;
5795;SDS011;2924;51.458;7.046;2022-12-08T08:20:59;16.60;;;12.33;;
5795;SDS011;2924;51.458;7.046;2022-12-08T08:23:25;16.87;;;10.83;;
5795;SDS011;2924;51.458;7.046;2022-12-08T08:25:51;18.57;;;11.30;;
5795;SDS011;2924;51.458;7.046;2022-12-08T08:28:17;15.97;;;10.90;;
5795;SDS011;2924;51.458;7.046;2022-12-08T08:30:46;15.10;;;10.70;;
5795;SDS011;2924;51.458;7.046;2022-12-08T08:33:12;21.00;;;13.53;;
5795;SDS011;2924;51.458;7.046;2022-12-08T08:35:38;15.87;;;11.80;;
5795;SDS011;2924;51.458;7.046;2022-12-08T08:38:04;17.97;;;12.10;;
5795;SDS011;2924;51.458;7.046;2022-12-08T08:40:30;18.37;;;12.50;;
5795;SDS011;2924;51.458;7.046;2022-12-08T08:42:56;20.90;;;14.37;;
5795;SDS011;2924;51.458;7.046;2022-12-08T08:45:24;17.50;;;13.07;;
5795;SDS011;2924;51.458;7.046;2022-12-08T08:47:50;20.90;;;14.47;;
5795;SDS011;2924;51.458;7.046;2022-12-08T08:50:15;22.70;;;13.87;;
5795;SDS011;2924;51.458;7.046;2022-12-08T08:52:41;19.77;;;14.40;;
5795;SDS011;2924;51.458;7.046;2022-12-08T08:55:07;18.43;;;12.83;;
5795;SDS011;2924;51.458;7.046;2022-12-08T08:57:33;19.73;;;14.00;;
5795;SDS011;2924;51.458;7.046;2022-12-08T08:59:58;20.30;;;13.53;;
5795;SDS011;2924;51.458;7.046;2022-12-08T09:02:24;23.00;;;14.00;;
5795;SDS011;2924;51.458;7.046;2022-12-08T09:04:49;18.77;;;12.67;;
5795;SDS011;2924;51.458;7.046;2022-12-08T09:07:15;18.70;;;13.37;;
5795;SDS011;2924;51.458;7.046;2022-12-08T09:09:41;18.50;;;12.37;;
5795;SDS011;2924;51.458;7.046;2022-12-08T09:12:07;14.50;;;11.43;;
5795;SDS011;2924;51.458;7.046;2022-12-08T09:14:33;18.60;;;13.77;;
5795;SDS011;2924;51.458;7.046;2022-12-08T09:16:59;17.90;;;13.17;;
5795;SDS011;2924;51.458;7.046;2022-12-08T09:19:25;21.10;;;14.47;;
5795;SDS011;2924;51.458;7.046;2022-12-08T09:21:50;26.93;;;14.53;;
5795;SDS011;2924;51.458;7.046;2022-12-08T09:24:16;23.40;;;14.53;;
5795;SDS011;2924;51.458;7.046;2022-12-08T09:26:43;20.93;;;14.47;;
5795;SDS011;2924;51.458;7.046;2022-12-08T09:29:09;19.53;;;14.37;;
5795;SDS011;2924;51.458;7.046;2022-12-08T09:31:35;21.17;;;14.73;;
5795;SDS011;2924;51.458;7.046;2022-12-08T09:34:01;25.47;;;17.33;;
5795;SDS011;2924;51.458;7.046;2022-12-08T09:36:28;25.67;;;17.43;;
5795;SDS011;2924;51.458;7.046;2022-12-08T09:38:54;29.13;;;17.93;;
5795;SDS011;2924;51.458;7.046;2022-12-08T09:41:27;29.77;;;20.50;;
5795;SDS011;2924;51.458;7.046;2022-12-08T09:44:08;26.80;;;18.30;;
5795;SDS011;2924;51.458;7.046;2022-12-08T09:46:36;30.10;;;18.50;;
5795;SDS011;2924;51.458;7.046;2022-12-08T09:49:03;29.40;;;18.00;;
5795;SDS011;2924;51.458;7.046;2022-12-08T09:51:37;29.57;;;19.60;;
5795;SDS011;2924;51.458;7.046;2022-12-08T09:54:17;27.13;;;18.17;;
5795;SDS011;2924;51.458;7.046;2022-12-08T09:56:54;29.27;;;20.53;;
5795;SDS011;2924;51.458;7.046;2022-12-08T09:59:28;32.33;;;20.00;;
5795;SDS011;2924;51.458;7.046;2022-12-08T10:01:56;30.23;;;20.03;;
5795;SDS011;2924;51.458;7.046;2022-12-08T10:04:23;29.30;;;20.70;;
5795;SDS011;2924;51.458;7.046;2022-12-08T10:09:47;34.50;;;22.07;;
5795;SDS011;2924;51.458;7.046;2022-12-08T10:17:50;30.57;;;20.03;;
5795;SDS011;2924;51.458;7.046;2022-12-08T10:20:22;33.53;;;21.13;;
5795;SDS011;2924;51.458;7.046;2022-12-08T10:23:03;29.37;;;20.30;;
5795;SDS011;2924;51.458;7.046;2022-12-08T10:25:43;33.70;;;22.13;;
5795;SDS011;2924;51.458;7.046;2022-12-08T10:28:19;41.10;;;23.27;;
5795;SDS011;2924;51.458;7.046;2022-12-08T10:30:45;29.30;;;20.03;;
5795;SDS011;2924;51.458;7.046;2022-12-08T10:33:14;37.73;;;22.43;;
5795;SDS011;2924;51.458;7.046;2022-12-08T10:35:43;28.20;;;17.80;;
5795;SDS011;2924;51.458;7.046;2022-12-08T10:40:59;26.80;;;18.40;;
5795;SDS011;2924;51.458;7.046;2022-12-08T10:43:27;24.30;;;15.63;;
5795;SDS011;2924;51.458;7.046;2022-12-08T10:45:53;23.43;;;14.50;;
5795;SDS011;2924;51.458;7.046;2022-12-08T10:48:20;22.77;;;16.73;;
5795;SDS011;2924;51.458;7.046;2022-12-08T10:50:56;22.43;;;15.97;;
5795;SDS011;2924;51.458;7.046;2022-12-08T10:53:24;23.50;;;16.30;;
5795;SDS011;2924;51.458;7.046;2022-12-08T10:58:36;21.00;;;15.13;;
5795;SDS011;2924;51.458;7.046;2022-12-08T11:01:12;28.47;;;16.70;;
5795;SDS011;2924;51.458;7.046;2022-12-08T11:03:53;21.57;;;16.00;;
5795;SDS011;2924;51.458;7.046;2022-12-08T11:06:21;23.60;;;16.23;;
5795;SDS011;2924;51.458;7.046;2022-12-08T11:08:59;23.33;;;16.60;;
5795;SDS011;2924;51.458;7.046;2022-12-08T11:14:12;29.80;;;19.17;;
5795;SDS011;2924;51.458;7.046;2022-12-08T11:16:42;34.57;;;20.07;;
5795;SDS011;2924;51.458;7.046;2022-12-08T11:19:11;29.90;;;19.77;;
5795;SDS011;2924;51.458;7.046;2022-12-08T11:21:40;30.57;;;20.43;;
5795;SDS011;2924;51.458;7.046;2022-12-08T11:26:53;29.07;;;20.70;;
5795;SDS011;2924;51.458;7.046;2022-12-08T11:29:23;30.70;;;20.63;;
5795;SDS011;2924;51.458;7.046;2022-12-08T11:31:52;31.60;;;19.70;;
5795;SDS011;2924;51.458;7.046;2022-12-08T11:37:19;32.03;;;21.90;;
5795;SDS011;2924;51.458;7.046;2022-12-08T11:39:52;36.27;;;23.10;;
5795;SDS011;2924;51.458;7.046;2022-12-08T11:42:21;42.40;;;24.17;;
5795;SDS011;2924;51.458;7.046;2022-12-08T11:44:56;36.90;;;23.90;;
5795;SDS011;2924;51.458;7.046;2022-12-08T11:50:01;35.93;;;24.10;;
5795;SDS011;2924;51.458;7.046;2022-12-08T11:52:48;37.80;;;25.17;;
5795;SDS011;2924;51.458;7.046;2022-12-08T11:57:48;48.37;;;26.20;;
5795;SDS011;2924;51.458;7.046;2022-12-08T12:00:15;38.33;;;24.90;;
5795;SDS011;2924;51.458;7.046;2022-12-08T12:02:47;34.77;;;22.07;;
5795;SDS011;2924;51.458;7.046;2022-12-08T12:11:32;31.37;;;21.90;;
5795;SDS011;2924;51.458;7.046;2022-12-08T12:20:03;29.43;;;19.90;;
5795;SDS011;2924;51.458;7.046;2022-12-08T12:22:55;33.13;;;21.00;;
5795;SDS011;2924;51.458;7.046;2022-12-08T12:25:29;39.83;;;25.57;;
5795;SDS011;2924;51.458;7.046;2022-12-08T12:27:59;59.23;;;31.03;;
5795;SDS011;2924;51.458;7.046;2022-12-08T12:30:32;42.40;;;24.60;;
5795;SDS011;2924;51.458;7.046;2022-12-08T12:33:20;72.77;;;32.87;;
5795;SDS011;2924;51.458;7.046;2022-12-08T12:35:47;51.70;;;26.53;;
5795;SDS011;2924;51.458;7.046;2022-12-08T12:41:25;68.97;;;31.07;;
5795;SDS011;2924;51.458;7.046;2022-12-08T12:44:06;63.07;;;29.90;;
5795;SDS011;2924;51.458;7.046;2022-12-08T12:46:40;67.93;;;27.97;;
5795;SDS011;2924;51.458;7.046;2022-12-08T12:52:02;57.07;;;26.17;;
5795;SDS011;2924;51.458;7.046;2022-12-08T13:02:23;23.30;;;15.20;;
5795;SDS011;2924;51.458;7.046;2022-12-08T13:07:25;20.20;;;15.80;;
5795;SDS011;2924;51.458;7.046;2022-12-08T13:10:10;18.33;;;15.70;;
5795;SDS011;2924;51.458;7.046;2022-12-08T13:12:39;20.70;;;15.83;;
5795;SDS011;2924;51.458;7.046;2022-12-08T13:15:05;20.00;;;15.53;;
5795;SDS011;2924;51.458;7.046;2022-12-08T13:17:39;17.70;;;14.60;;
5795;SDS011;2924;51.458;7.046;2022-12-08T13:20:16;25.00;;;17.67;;
5795;SDS011;2924;51.458;7.046;2022-12-08T13:28:12;20.47;;;15.57;;
5795;SDS011;2924;51.458;7.046;2022-12-08T13:30:43;23.00;;;18.10;;
5795;SDS011;2924;51.458;7.046;2022-12-08T13:33:11;22.60;;;16.07;;
5795;SDS011;2924;51.458;7.046;2022-12-08T13:35:43;22.70;;;16.13;;
5795;SDS011;2924;51.458;7.046;2022-12-08T13:38:16;18.30;;;12.80;;
5795;SDS011;2924;51.458;7.046;2022-12-08T13:40:45;18.50;;;12.73;;
5795;SDS011;2924;51.458;7.046;2022-12-08T13:43:28;17.40;;;13.47;;
5795;SDS011;2924;51.458;7.046;2022-12-08T13:45:59;16.30;;;11.60;;
5795;SDS011;2924;51.458;7.046;2022-12-08T13:48:37;16.37;;;11.07;;
5795;SDS011;2924;51.458;7.046;2022-12-08T13:53:55;16.60;;;8.93;;
5795;SDS011;2924;51.458;7.046;2022-12-08T13:56:29;11.00;;;9.10;;
5795;SDS011;2924;51.458;7.046;2022-12-08T13:59:07;15.10;;;11.43;;
5795;SDS011;2924;51.458;7.046;2022-12-08T14:01:43;16.90;;;11.50;;
5795;SDS011;2924;51.458;7.046;2022-12-08T14:04:13;26.10;;;16.73;;
5795;SDS011;2924;51.458;7.046;2022-12-08T14:06:44;25.67;;;16.40;;
5795;SDS011;2924;51.458;7.046;2022-12-08T14:09:22;23.27;;;16.43;;
5795;SDS011;2924;51.458;7.046;2022-12-08T14:11:56;26.70;;;16.83;;
5795;SDS011;2924;51.458;7.046;2022-12-08T14:14:43;31.37;;;17.63;;
5795;SDS011;2924;51.458;7.046;2022-12-08T14:17:12;25.37;;;16.77;;
5795;SDS011;2924;51.458;7.046;2022-12-08T15:22:35;26.67;;;15.87;;
5795;SDS011;2924;51.458;7.046;2022-12-08T15:25:00;20.63;;;13.97;;
5795;SDS011;2924;51.458;7.046;2022-12-08T15:27:26;22.00;;;14.43;;
5795;SDS011;2924;51.458;7.046;2022-12-08T15:29:52;20.13;;;14.60;;
5795;SDS011;2924;51.458;7.046;2022-12-08T15:32:18;22.83;;;16.43;;
5795;SDS011;2924;51.458;7.046;2022-12-08T15:34:46;25.83;;;16.73;;
5795;SDS011;2924;51.458;7.046;2022-12-08T15:37:19;22.80;;;15.90;;
5795;SDS011;2924;51.458;7.046;2022-12-08T15:39:44;29.20;;;17.73;;
5795;SDS011;2924;51.458;7.046;2022-12-08T15:42:10;27.40;;;18.13;;
5795;SDS011;2924;51.458;7.046;2022-12-08T15:44:37;25.00;;;18.47;;
5795;SDS011;2924;51.458;7.046;2022-12-08T15:47:02;29.70;;;18.43;;
5795;SDS011;2924;51.458;7.046;2022-12-08T15:49:29;31.17;;;18.50;;
5795;SDS011;2924;51.458;7.046;2022-12-08T15:51:54;41.80;;;24.40;;
5795;SDS011;2924;51.458;7.046;2022-12-08T15:54:20;35.57;;;23.17;;
5795;SDS011;2924;51.458;7.046;2022-12-08T15:56:48;46.17;;;24.40;;
5795;SDS011;2924;51.458;7.046;2022-12-08T15:59:17;34.27;;;22.43;;
5795;SDS011;2924;51.458;7.046;2022-12-08T16:01:44;30.33;;;21.27;;
5795;SDS011;2924;51.458;7.046;2022-12-08T16:04:15;34.83;;;21.13;;
5795;SDS011;2924;51.458;7.046;2022-12-08T16:06:44;31.20;;;21.70;;
5795;SDS011;2924;51.458;7.046;2022-12-08T16:09:19;37.50;;;22.30;;
5795;SDS011;2924;51.458;7.046;2022-12-08T16:11:45;33.10;;;21.13;;
5795;SDS011;2924;51.458;7.046;2022-12-08T16:14:30;34.83;;;20.33;;
5795;SDS011;2924;51.458;7.046;2022-12-08T16:16:56;42.13;;;22.70;;
5795;SDS011;2924;51.458;7.046;2022-12-08T16:19:21;39.00;;;23.40;;
5795;SDS011;2924;51.458;7.046;2022-12-08T16:21:47;37.97;;;23.43;;
5795;SDS011;2924;51.458;7.046;2022-12-08T16:24:13;45.17;;;25.60;;
5795;SDS011;2924;51.458;7.046;2022-12-08T16:26:38;40.50;;;23.20;;
5795;SDS011;2924;51.458;7.046;2022-12-08T16:29:04;67.13;;;36.37;;
5795;SDS011;2924;51.458;7.046;2022-12-08T16:31:30;43.03;;;24.33;;
5795;SDS011;2924;51.458;7.046;2022-12-08T16:33:56;34.20;;;21.80;;
5795;SDS011;2924;51.458;7.046;2022-12-08T16:36:22;46.57;;;24.30;;
5795;SDS011;2924;51.458;7.046;2022-12-08T16:38:47;35.67;;;18.83;;
5795;SDS011;2924;51.458;7.046;2022-12-08T16:41:13;36.80;;;20.33;;
5795;SDS011;2924;51.458;7.046;2022-12-08T16:44:02;37.13;;;20.60;;
5795;SDS011;2924;51.458;7.046;2022-12-08T16:46:29;29.30;;;18.60;;
5795;SDS011;2924;51.458;7.046;2022-12-08T16:48:56;26.83;;;18.57;;
5795;SDS011;2924;51.458;7.046;2022-12-08T16:51:22;28.80;;;17.90;;
5795;SDS011;2924;51.458;7.046;2022-12-08T16:53:49;33.93;;;19.50;;
5795;SDS011;2924;51.458;7.046;2022-12-08T16:56:16;29.60;;;18.43;;
5795;SDS011;2924;51.458;7.046;2022-12-08T16:58:44;29.93;;;17.30;;
5795;SDS011;2924;51.458;7.046;2022-12-08T17:01:14;26.97;;;16.47;;
5795;SDS011;2924;51.458;7.046;2022-12-08T17:03:42;29.63;;;18.40;;
5795;SDS011;2924;51.458;7.046;2022-12-08T17:06:13;30.27;;;18.80;;
5795;SDS011;2924;51.458;7.046;2022-12-08T17:08:40;38.97;;;18.90;;
5795;SDS011;2924;51.458;7.046;2022-12-08T17:11:07;30.50;;;18.83;;
5795;SDS011;2924;51.458;7.046;2022-12-08T17:13:36;30.53;;;19.40;;
5795;SDS011;2924;51.458;7.046;2022-12-08T17:16:11;39.77;;;20.70;;
5795;SDS011;2924;51.458;7.046;2022-12-08T17:18:39;32.93;;;20.00;;
5795;SDS011;2924;51.458;7.046;2022-12-08T17:21:09;34.47;;;20.50;;
5795;SDS011;2924;51.458;7.046;2022-12-08T17:23:37;39.17;;;21.17;;
5795;SDS011;2924;51.458;7.046;2022-12-08T17:26:06;37.70;;;22.13;;
5795;SDS011;2924;51.458;7.046;2022-12-08T17:28:32;30.63;;;19.70;;
5795;SDS011;2924;51.458;7.046;2022-12-08T17:30:58;40.90;;;23.33;;
5795;SDS011;2924;51.458;7.046;2022-12-08T17:33:24;38.47;;;23.23;;
5795;SDS011;2924;51.458;7.046;2022-12-08T17:35:51;45.40;;;24.07;;
5795;SDS011;2924;51.458;7.046;2022-12-08T17:38:19;44.13;;;23.30;;
5795;SDS011;2924;51.458;7.046;2022-12-08T17:40:46;41.00;;;25.43;;
5795;SDS011;2924;51.458;7.046;2022-12-08T17:43:12;44.67;;;24.83;;
5795;SDS011;2924;51.458;7.046;2022-12-08T17:45:42;48.50;;;24.60;;